Terminal Aerodrome Forecast
Issued by NWS Denver/Boulder, CO

Home | Current Version | Previous Version | Text Only | Print | Product List | Glossary On
Versions: 1 2 3 4 5 6 7 8 9 10 11 12 13 14 15 16 17 18 19 20 21 22 23 24 25 26 27 28 29 30 31 32 33 34 35 36 37 38 39 40 41 42 43 44 45 46 47 48 49 50
000
FTUS45 KBOU 080804 AAA
TAFDEN
TAF AMD
KDEN 080804Z 0808/0912 16006KT P6SM FEW020
     FM081500 VRB06KT P6SM FEW200
     FM081700 08007KT P6SM FEW050 SCT200
     FM082300 03007KT P6SM SCT120 BKN200
     FM090300 18009KT P6SM SCT120 BKN150=

USA.gov is the U.S. government's official web portal to all federal, state and local government web resources and services.